Time;durP1;ratioP1;P1;durP2;ratioP2;P2;SDS_P1;SDS_P2;PMS_P1;PMS_P2;Temp;Humidity;BMP_temperature;BMP_pressure;BME280_temperature;BME280_humidity;BME280_pressure;Samples;Min_cycle;Max_cycle;Signal;HPM_P1;HPM_P2
2023/09/15 00:00:24;;;;;;;11.50;6.90;;;;;;;18.74;89.62;98940.99;105564;1255;72669;-21
2023/09/15 00:03:11;;;;;;;7.70;6.60;;;;;;;19.07;87.61;98939.64;105642;1251;61070;-21
2023/09/15 00:05:39;;;;;;;10.50;8.00;;;;;;;19.04;87.14;98941.18;105697;1252;61252;-21
2023/09/15 00:08:06;;;;;;;10.80;8.20;;;;;;;18.86;87.88;98942.63;105662;1251;73898;-22
2023/09/15 00:10:35;;;;;;;7.90;6.20;;;;;;;18.60;89.01;98940.63;105689;1251;74371;-22
2023/09/15 00:13:02;;;;;;;8.70;7.40;;;;;;;18.76;89.21;98944.41;105503;1251;72455;-22
2023/09/15 00:15:29;;;;;;;8.70;7.10;;;;;;;19.05;88.02;98947.61;105645;1254;61048;-22
2023/09/15 00:17:56;;;;;;;10.30;7.80;;;;;;;19.02;87.43;98944.75;105711;1257;61086;-22
2023/09/15 00:20:25;;;;;;;10.50;8.00;;;;;;;18.76;88.33;98945.83;105719;1256;73982;-22
2023/09/15 00:22:53;;;;;;;7.00;4.50;;;;;;;18.52;90.11;98950.42;105817;1251;73987;-22
2023/09/15 00:25:26;;;;;;;7.90;6.00;;;;;;;18.89;89.35;98950.47;105513;1257;72639;-22
2023/09/15 00:27:55;;;;;;;9.00;6.00;;;;;;;19.06;87.70;98953.96;105490;1254;61061;-22
2023/09/15 00:30:22;;;;;;;6.80;5.60;;;;;;;18.93;87.94;98956.34;105566;1251;61276;-22
2023/09/15 00:32:50;;;;;;;6.10;5.10;;;;;;;18.74;89.06;98960.28;105784;1255;73656;-22
2023/09/15 00:35:19;;;;;;;7.80;4.20;;;;;;;18.53;89.77;98958.15;105565;1257;74433;-22
2023/09/15 00:37:46;;;;;;;6.00;4.20;;;;;;;18.80;89.37;98961.09;105555;1257;72457;-22
2023/09/15 00:40:14;;;;;;;5.40;4.80;;;;;;;18.95;88.03;98962.95;105644;1255;61142;-22
2023/09/15 00:42:43;;;;;;;6.90;4.50;;;;;;;18.81;88.31;98964.73;105586;1260;61147;-22
2023/09/15 00:45:14;;;;;;;5.10;4.40;;;;;;;18.53;89.59;98963.64;105523;1260;73848;-22
2023/09/15 00:47:43;;;;;;;7.10;3.60;;;;;;;18.26;91.27;98965.63;105373;1251;74336;-22
2023/09/15 00:50:13;;;;;;;5.00;3.80;;;;;;;18.55;90.08;98971.64;105594;1257;72470;-22
2023/09/15 00:52:45;;;;;;;4.20;3.40;;;;;;;18.73;88.07;98974.66;105444;1257;61165;-22
2023/09/15 00:55:13;;;;;;;6.20;3.90;;;;;;;18.55;87.59;98976.09;105863;1257;61030;-22
2023/09/15 00:57:40;;;;;;;4.00;3.60;;;;;;;18.31;88.56;98975.66;105708;1257;72762;-22
2023/09/15 01:00:11;;;;;;;2.70;2.30;;;;;;;18.19;89.08;98979.67;105653;1257;73323;-23
2023/09/15 01:02:41;;;;;;;7.40;3.80;;;;;;;18.43;88.44;98980.02;105491;1260;72432;-22
2023/09/15 01:05:10;;;;;;;5.20;3.40;;;;;;;18.75;86.66;98983.45;105660;1252;61045;-23
2023/09/15 01:07:37;;;;;;;4.10;3.30;;;;;;;18.68;86.16;98988.06;105796;1254;61038;-23
2023/09/15 01:10:07;;;;;;;5.50;4.40;;;;;;;18.30;87.36;98989.27;105754;1251;74310;-23
2023/09/15 01:12:35;;;;;;;4.40;3.50;;;;;;;17.89;88.70;98992.95;105543;1260;74296;-23
2023/09/15 01:15:03;;;;;;;2.50;2.30;;;;;;;17.82;89.55;98992.34;105581;1259;72440;-22
2023/09/15 01:17:36;;;;;;;2.80;2.50;;;;;;;18.21;88.08;98999.98;105707;1251;61061;-22
2023/09/15 01:20:09;;;;;;;4.20;3.30;;;;;;;18.45;86.40;98995.54;105546;1251;61147;-23
2023/09/15 01:22:55;;;;;;;5.00;3.20;;;;;;;18.37;86.19;99000.27;105464;1257;73049;-23
2023/09/15 01:25:43;;;;;;;4.10;3.10;;;;;;;18.19;87.11;99001.26;105774;1256;74221;-22
2023/09/15 01:28:48;;;;;;;5.40;2.60;;;;;;;17.93;88.35;99004.81;105527;1258;72475;-23
2023/09/15 01:31:17;;;;;;;4.30;3.20;;;;;;;18.21;87.73;99006.31;105715;1260;61185;-22
2023/09/15 01:33:45;;;;;;;4.40;2.80;;;;;;;18.32;86.58;99008.40;105318;1257;61232;-23
2023/09/15 01:36:12;;;;;;;10.90;3.30;;;;;;;18.14;87.04;99008.52;105623;1259;73590;-22
2023/09/15 01:38:39;;;;;;;4.60;2.90;;;;;;;17.93;88.12;99012.79;105870;1255;74316;-23
2023/09/15 01:41:06;;;;;;;3.30;2.20;;;;;;;17.74;88.78;99014.50;105525;1256;72919;-22
2023/09/15 01:43:33;;;;;;;4.80;2.90;;;;;;;18.00;88.10;99012.13;105654;1264;61118;-23
2023/09/15 01:46:00;;;;;;;3.50;2.50;;;;;;;18.16;86.20;99009.88;105684;1256;61164;-23
2023/09/15 01:48:28;;;;;;;5.00;2.20;;;;;;;17.96;86.29;99014.49;105658;1260;73869;-23
2023/09/15 01:50:55;;;;;;;4.70;2.00;;;;;;;17.67;87.08;99015.17;105676;1256;74319;-23
2023/09/15 01:53:22;;;;;;;1.60;1.50;;;;;;;17.45;87.92;99021.53;105699;1257;72531;-23
2023/09/15 01:55:50;;;;;;;4.60;1.40;;;;;;;17.34;88.57;99021.25;105379;1251;61032;-23
2023/09/15 01:58:18;;;;;;;1.60;1.50;;;;;;;17.75;87.37;99022.63;105496;1259;61100;-23
2023/09/15 02:00:46;;;;;;;4.50;1.60;;;;;;;17.83;85.93;99024.89;105647;1257;73666;-23
2023/09/15 02:03:13;;;;;;;1.80;1.30;;;;;;;17.79;86.08;99026.91;105703;1256;74614;-23
2023/09/15 02:05:40;;;;;;;2.40;1.50;;;;;;;17.65;86.18;99031.04;105596;1253;72561;-23
2023/09/15 02:08:07;;;;;;;2.80;1.10;;;;;;;17.43;87.41;99034.32;105503;1252;61972;-23
2023/09/15 02:10:35;;;;;;;4.10;1.70;;;;;;;17.68;87.19;99032.73;105663;1262;61143;-23
2023/09/15 02:13:02;;;;;;;1.60;1.50;;;;;;;17.91;85.35;99036.50;105643;1260;73621;-23
2023/09/15 02:15:29;;;;;;;2.30;1.50;;;;;;;17.81;85.48;99035.52;105558;1259;74598;-23
2023/09/15 02:17:58;;;;;;;2.40;1.60;;;;;;;17.72;85.86;99036.13;105648;1257;72998;-23
2023/09/15 02:20:25;;;;;;;3.70;1.70;;;;;;;17.51;86.73;99039.22;105343;1258;61217;-23
2023/09/15 02:22:53;;;;;;;1.80;1.00;;;;;;;17.35;87.90;99043.16;105661;1257;61131;-24
2023/09/15 02:25:20;;;;;;;1.50;1.40;;;;;;;17.79;86.75;99049.76;105750;1255;73733;-23
2023/09/15 02:27:47;;;;;;;2.00;1.40;;;;;;;18.21;84.69;99047.08;105659;1257;74335;-23
2023/09/15 02:30:14;;;;;;;1.90;1.30;;;;;;;18.18;83.85;99047.92;105654;1256;72624;-23
2023/09/15 02:32:41;;;;;;;1.50;1.20;;;;;;;17.99;84.76;99054.66;105634;1257;61160;-23
2023/09/15 02:35:08;;;;;;;4.50;1.50;;;;;;;17.68;86.01;99053.79;105579;1259;61234;-23
2023/09/15 02:37:35;;;;;;;2.80;1.40;;;;;;;17.34;88.14;99057.66;105520;1259;74397;-23
2023/09/15 02:40:04;;;;;;;2.20;1.20;;;;;;;17.49;87.15;99059.63;105545;1260;74657;-23
2023/09/15 02:42:35;;;;;;;3.10;1.50;;;;;;;17.53;86.05;99063.73;105553;1258;70389;-23
2023/09/15 02:45:03;;;;;;;1.90;1.50;;;;;;;17.42;85.91;99068.64;105618;1253;61134;-23
2023/09/15 02:47:31;;;;;;;1.50;1.40;;;;;;;17.08;86.32;99068.95;105555;1257;61198;-23
2023/09/15 02:49:58;;;;;;;1.70;1.50;;;;;;;16.90;87.15;99069.45;105556;1251;74482;-23
2023/09/15 02:52:25;;;;;;;1.40;0.80;;;;;;;16.77;87.90;99076.03;105688;1258;74366;-22
2023/09/15 02:54:52;;;;;;;1.10;1.00;;;;;;;17.19;86.59;99073.69;105741;1252;72493;-23
2023/09/15 02:57:20;;;;;;;1.10;0.80;;;;;;;17.64;84.16;99077.90;105670;1254;61098;-22
2023/09/15 02:59:48;;;;;;;1.40;0.90;;;;;;;17.64;83.16;99079.18;105818;1260;61145;-23
2023/09/15 03:02:16;;;;;;;1.60;1.20;;;;;;;17.43;83.56;99082.11;105760;1251;73692;-22
2023/09/15 03:04:46;;;;;;;1.30;1.10;;;;;;;17.14;84.76;99083.02;105591;1260;74587;-23
2023/09/15 03:07:14;;;;;;;1.10;0.80;;;;;;;16.94;85.84;99082.13;105690;1257;71213;-23
2023/09/15 03:09:43;;;;;;;1.80;0.90;;;;;;;17.33;85.25;99085.69;105423;1258;61080;-22
2023/09/15 03:12:10;;;;;;;1.30;0.90;;;;;;;17.67;83.39;99087.23;105465;1257;61100;-23
2023/09/15 03:14:39;;;;;;;1.10;1.00;;;;;;;17.60;83.00;99088.56;105500;1255;73640;-22
2023/09/15 03:17:06;;;;;;;1.50;1.40;;;;;;;17.31;84.20;99093.49;105547;1257;74335;-23
2023/09/15 03:19:33;;;;;;;1.70;1.30;;;;;;;16.99;85.80;99091.26;105348;1251;71474;-23
2023/09/15 03:22:01;;;;;;;4.00;1.20;;;;;;;16.77;87.42;99096.25;105660;1258;61153;-23
2023/09/15 03:24:29;;;;;;;1.50;1.30;;;;;;;16.90;87.44;99092.59;105775;1258;61150;-23
2023/09/15 03:26:56;;;;;;;4.00;1.60;;;;;;;17.01;85.94;99096.52;105831;1251;72687;-23
2023/09/15 03:29:23;;;;;;;2.00;1.80;;;;;;;16.91;86.04;99099.27;105704;1259;74304;-23
2023/09/15 03:31:50;;;;;;;2.20;1.80;;;;;;;16.68;86.67;99103.67;105808;1260;73350;-22
2023/09/15 03:34:18;;;;;;;4.40;1.90;;;;;;;16.40;87.72;99106.10;105681;1257;61149;-23
2023/09/15 03:36:45;;;;;;;2.10;1.20;;;;;;;16.18;89.02;99110.58;105568;1260;61276;-22
2023/09/15 03:39:13;;;;;;;4.50;1.80;;;;;;;16.46;88.13;99113.70;105449;1259;73765;-23
2023/09/15 03:41:40;;;;;;;5.00;1.30;;;;;;;16.62;86.37;99109.75;105838;1257;74348;-23
2023/09/15 03:44:07;;;;;;;3.20;1.30;;;;;;;16.59;86.60;99116.02;105976;1253;72507;-22
2023/09/15 03:46:35;;;;;;;4.70;1.70;;;;;;;16.35;87.41;99114.98;105954;1253;61140;-22
2023/09/15 03:49:03;;;;;;;2.50;1.40;;;;;;;16.07;89.12;99119.15;105554;1257;61108;-22
2023/09/15 03:51:31;;;;;;;2.70;1.10;;;;;;;15.97;90.49;99126.08;105696;1260;73867;-22
2023/09/15 03:53:58;;;;;;;2.90;1.30;;;;;;;16.43;88.50;99128.66;105602;1257;74423;-22
2023/09/15 03:56:25;;;;;;;2.50;1.10;;;;;;;16.69;86.28;99133.94;105526;1254;72693;-22
2023/09/15 03:58:52;;;;;;;1.20;1.10;;;;;;;16.59;85.93;99133.66;105738;1251;61153;-22
2023/09/15 04:01:19;;;;;;;1.60;1.20;;;;;;;16.35;86.92;99140.02;105630;1257;61144;-23
2023/09/15 04:03:47;;;;;;;2.50;1.40;;;;;;;16.18;88.25;99141.59;105570;1251;73765;-22
2023/09/15 04:06:16;;;;;;;2.00;0.90;;;;;;;15.88;89.81;99144.34;105568;1257;74775;-22
2023/09/15 04:08:45;;;;;;;2.30;1.20;;;;;;;16.29;88.86;99148.21;105566;1253;72340;-22
2023/09/15 04:11:13;;;;;;;1.50;1.30;;;;;;;16.53;86.76;99155.04;105373;1260;61273;-22
2023/09/15 04:13:40;;;;;;;1.70;1.30;;;;;;;16.36;87.11;99157.86;105810;1257;61231;-22
2023/09/15 04:16:09;;;;;;;3.60;1.40;;;;;;;16.24;87.64;99161.87;105664;1251;73828;-22
2023/09/15 04:18:36;;;;;;;3.80;1.60;;;;;;;15.89;89.44;99163.52;105711;1251;74303;-22
2023/09/15 04:21:04;;;;;;;4.70;1.30;;;;;;;15.85;90.47;99164.57;105728;1257;72635;-22
2023/09/15 04:23:31;;;;;;;2.00;1.50;;;;;;;16.04;89.52;99161.81;105873;1255;61100;-22
2023/09/15 04:26:02;;;;;;;2.40;1.40;;;;;;;16.25;88.71;99169.49;105529;1259;61196;-22
2023/09/15 04:28:29;;;;;;;4.00;1.50;;;;;;;16.27;88.47;99169.45;105686;1257;73868;-22
2023/09/15 04:30:56;;;;;;;2.20;1.80;;;;;;;15.84;89.71;99172.67;105550;1254;74609;-22
2023/09/15 04:33:25;;;;;;;1.20;1.00;;;;;;;15.69;91.35;99175.42;105675;1255;71971;-22
2023/09/15 04:35:53;;;;;;;2.00;1.40;;;;;;;16.06;90.45;99177.73;105546;1254;61050;-22
2023/09/15 04:38:20;;;;;;;2.20;1.80;;;;;;;16.41;88.18;99179.52;105523;1252;61147;-22
2023/09/15 04:40:48;;;;;;;2.00;1.80;;;;;;;16.23;87.97;99177.23;105607;1254;73892;-22
2023/09/15 04:43:18;;;;;;;2.40;1.80;;;;;;;16.04;88.84;99178.11;105546;1257;74395;-22
2023/09/15 04:45:46;;;;;;;2.20;1.70;;;;;;;15.81;89.33;99180.21;105469;1260;72475;-22
2023/09/15 04:48:13;;;;;;;2.30;1.40;;;;;;;15.69;90.28;99186.43;105834;1251;61637;-22
2023/09/15 04:50:42;;;;;;;1.70;1.30;;;;;;;16.16;88.58;99187.91;105831;1257;61196;-22
2023/09/15 04:53:09;;;;;;;2.40;1.80;;;;;;;16.40;86.54;99189.86;105911;1254;73492;-22
2023/09/15 04:55:37;;;;;;;2.00;1.60;;;;;;;16.42;85.97;99190.63;105751;1257;74178;-22
2023/09/15 04:58:05;;;;;;;4.00;1.80;;;;;;;16.25;86.11;99190.27;105595;1257;72453;-22
2023/09/15 05:00:34;;;;;;;2.30;1.60;;;;;;;15.97;87.51;99189.98;105724;1252;61775;-22
2023/09/15 05:03:02;;;;;;;2.50;1.60;;;;;;;16.17;87.60;99189.73;105625;1260;61143;-22
2023/09/15 05:05:30;;;;;;;3.20;1.60;;;;;;;16.31;85.87;99196.15;105536;1257;74486;-22
2023/09/15 05:07:57;;;;;;;7.30;1.90;;;;;;;16.17;86.40;99202.36;105849;1251;74344;-22
2023/09/15 05:10:25;;;;;;;2.10;1.90;;;;;;;16.03;86.95;99204.23;105829;1257;72686;-22
2023/09/15 05:12:52;;;;;;;1.90;1.40;;;;;;;15.89;87.85;99207.05;105631;1255;61746;-22
2023/09/15 05:15:20;;;;;;;3.10;1.50;;;;;;;16.24;87.12;99210.72;105598;1256;61147;-22
2023/09/15 05:17:47;;;;;;;4.00;1.60;;;;;;;16.47;84.99;99209.80;105705;1251;73763;-22
2023/09/15 05:20:15;;;;;;;2.70;1.80;;;;;;;16.43;85.09;99214.94;105623;1254;74372;-22
2023/09/15 05:22:42;;;;;;;3.30;1.80;;;;;;;16.23;85.92;99218.35;105514;1254;72369;-22
2023/09/15 05:25:09;;;;;;;2.00;1.60;;;;;;;15.99;86.89;99219.77;105714;1252;61052;-22
2023/09/15 05:27:37;;;;;;;4.20;1.30;;;;;;;15.73;88.20;99229.47;105557;1266;61124;-22
2023/09/15 05:30:05;;;;;;;4.30;1.50;;;;;;;15.99;87.52;99225.84;105586;1251;74159;-22
2023/09/15 05:32:34;;;;;;;4.90;1.70;;;;;;;16.42;85.58;99230.94;105593;1260;74194;-22
2023/09/15 05:35:01;;;;;;;2.00;1.70;;;;;;;16.42;84.58;99232.38;105628;1253;72530;-22
2023/09/15 05:37:29;;;;;;;1.60;1.30;;;;;;;16.21;85.31;99239.38;105651;1254;61455;-22
2023/09/15 05:39:56;;;;;;;6.70;1.70;;;;;;;15.89;86.81;99238.34;105477;1261;61167;-22
2023/09/15 05:42:23;;;;;;;1.40;1.00;;;;;;;15.82;87.20;99241.22;105658;1251;73787;-22
2023/09/15 05:44:50;;;;;;;3.50;1.30;;;;;;;16.23;86.11;99243.08;105884;1257;74341;-22
2023/09/15 05:47:17;;;;;;;1.60;1.50;;;;;;;16.57;84.18;99243.99;105517;1254;72730;-22
2023/09/15 05:49:44;;;;;;;1.80;1.50;;;;;;;16.55;84.11;99246.61;105409;1258;61153;-22
2023/09/15 05:52:11;;;;;;;2.90;1.30;;;;;;;16.33;84.91;99247.94;105600;1252;61179;-22
2023/09/15 05:54:39;;;;;;;1.60;1.00;;;;;;;16.01;86.58;99249.33;105688;1251;72761;-21
2023/09/15 05:57:06;;;;;;;2.50;0.80;;;;;;;15.90;88.06;99247.55;105683;1256;74764;-22
2023/09/15 05:59:32;;;;;;;1.40;1.10;;;;;;;16.35;86.24;99249.86;105752;1251;72607;-22
2023/09/15 06:01:59;;;;;;;1.70;1.00;;;;;;;16.62;84.48;99254.52;105726;1251;61745;-22
2023/09/15 06:04:28;;;;;;;1.40;1.00;;;;;;;16.60;84.06;99258.59;105735;1252;61138;-22
2023/09/15 06:06:55;;;;;;;1.90;0.90;;;;;;;16.44;84.82;99260.99;105590;1251;74331;-22
2023/09/15 06:09:22;;;;;;;2.10;0.90;;;;;;;16.35;86.09;99268.85;105562;1251;74324;-22
2023/09/15 06:11:49;;;;;;;1.60;0.80;;;;;;;16.24;86.43;99270.33;105672;1251;72675;-22
2023/09/15 06:14:16;;;;;;;1.00;0.90;;;;;;;16.66;84.38;99267.54;105691;1251;61134;-22
2023/09/15 06:16:43;;;;;;;2.90;0.90;;;;;;;16.94;81.96;99271.23;105707;1256;61868;-24
2023/09/15 06:19:10;;;;;;;2.50;1.10;;;;;;;16.93;81.84;99271.45;105634;1251;73746;-23
2023/09/15 06:21:37;;;;;;;2.30;1.10;;;;;;;16.76;82.43;99276.12;105713;1257;74323;-22
2023/09/15 06:24:04;;;;;;;3.40;1.10;;;;;;;16.57;82.90;99274.75;105952;1256;71530;-22
2023/09/15 06:26:33;;;;;;;2.70;0.80;;;;;;;16.31;84.37;99283.19;105909;1251;61952;-23
2023/09/15 06:29:00;;;;;;;2.30;1.00;;;;;;;16.77;84.00;99286.23;105718;1261;61106;-23
2023/09/15 06:31:27;;;;;;;1.30;0.90;;;;;;;17.23;82.10;99287.23;105863;1251;73798;-23
2023/09/15 06:33:55;;;;;;;1.70;0.90;;;;;;;17.23;80.61;99293.13;105582;1251;74669;-23
2023/09/15 06:36:22;;;;;;;1.50;1.00;;;;;;;16.90;80.67;99296.14;105681;1251;72686;-23
2023/09/15 06:38:50;;;;;;;1.90;1.60;;;;;;;16.67;82.41;99300.59;105680;1251;61879;-23
2023/09/15 06:41:17;;;;;;;1.90;1.10;;;;;;;16.50;83.30;99304.23;105564;1257;61258;-23
2023/09/15 06:43:44;;;;;;;2.30;0.90;;;;;;;16.35;84.20;99305.24;105653;1251;73496;-23
2023/09/15 06:46:11;;;;;;;1.90;1.00;;;;;;;16.67;83.98;99307.02;105939;1251;74819;-23
2023/09/15 06:48:38;;;;;;;9.70;2.00;;;;;;;17.01;81.87;99306.96;105995;1251;72458;-23
2023/09/15 06:51:05;;;;;;;5.90;1.30;;;;;;;16.85;81.74;99306.95;105973;1251;61758;-23
2023/09/15 06:53:33;;;;;;;2.20;1.40;;;;;;;16.80;82.47;99313.45;105673;1257;61154;-23
2023/09/15 06:55:59;;;;;;;3.40;1.30;;;;;;;16.57;82.85;99318.39;105699;1251;72826;-23
2023/09/15 06:58:27;;;;;;;2.20;0.70;;;;;;;16.32;84.66;99323.02;105823;1255;74404;-23
2023/09/15 07:00:55;;;;;;;4.90;1.30;;;;;;;16.69;84.06;99326.16;105612;1255;72785;-23
2023/09/15 07:03:23;;;;;;;2.10;1.10;;;;;;;17.05;81.17;99326.39;105585;1257;61186;-23
2023/09/15 07:05:51;;;;;;;2.70;1.00;;;;;;;17.17;79.95;99328.58;105522;1259;61121;-23
2023/09/15 07:08:18;;;;;;;1.30;1.10;;;;;;;17.09;80.44;99327.20;105697;1251;73790;-23
2023/09/15 07:10:50;;;;;;;2.70;1.30;;;;;;;16.86;81.31;99329.67;105707;1256;74409;-23
2023/09/15 07:13:18;;;;;;;1.30;0.90;;;;;;;16.58;82.58;99333.08;105689;1254;74287;-23
2023/09/15 07:15:45;;;;;;;3.20;1.20;;;;;;;16.58;83.77;99331.17;105694;1251;61987;-23
2023/09/15 07:18:12;;;;;;;1.60;0.90;;;;;;;17.09;82.04;99326.94;105711;1256;61220;-23
2023/09/15 07:20:39;;;;;;;1.70;0.90;;;;;;;17.30;79.47;99323.77;105566;1251;73897;-23
2023/09/15 07:23:07;;;;;;;1.90;1.10;;;;;;;17.33;79.05;99325.69;105710;1257;72153;-23
2023/09/15 07:25:34;;;;;;;1.40;0.90;;;;;;;17.15;79.00;99326.55;105805;1254;72438;-23
2023/09/15 07:28:03;;;;;;;2.60;1.00;;;;;;;16.95;78.78;99326.73;105706;1251;61058;-23
2023/09/15 07:30:30;;;;;;;2.20;0.80;;;;;;;16.91;79.12;99328.52;105822;1257;61195;-23
2023/09/15 07:32:57;;;;;;;3.50;0.90;;;;;;;16.83;79.44;99331.70;105946;1251;75582;-23
2023/09/15 07:35:25;;;;;;;1.40;0.80;;;;;;;17.12;79.42;99330.67;105722;1251;76049;-23
2023/09/15 07:37:52;;;;;;;2.50;1.70;;;;;;;17.48;77.61;99333.96;105679;1254;72501;-23
2023/09/15 07:40:22;;;;;;;1.30;1.10;;;;;;;17.39;77.48;99331.11;103434;1251;3044258;-23
2023/09/15 07:42:52;;;;;;;1.10;0.90;;;;;;;17.07;78.49;99330.69;105610;1257;61164;-23
2023/09/15 07:45:19;;;;;;;1.80;1.00;;;;;;;16.95;79.46;99338.59;105705;1251;73875;-23
2023/09/15 07:47:46;;;;;;;3.80;1.20;;;;;;;16.81;79.74;99337.02;105556;1259;76095;-23
2023/09/15 07:50:16;;;;;;;1.50;0.70;;;;;;;16.63;80.75;99337.64;105675;1251;72675;-23
2023/09/15 07:52:45;;;;;;;2.20;0.90;;;;;;;17.10;79.35;99338.81;105798;1251;61192;-23
2023/09/15 07:55:12;;;;;;;1.10;0.70;;;;;;;17.28;77.50;99340.49;105709;1260;61154;-24
2023/09/15 07:57:39;;;;;;;1.90;1.10;;;;;;;17.39;77.31;99344.24;105735;1251;73705;-23
2023/09/15 08:00:10;;;;;;;1.80;1.20;;;;;;;17.04;77.53;99339.27;105989;1251;75064;-22
2023/09/15 08:02:40;;;;;;;;;;;;;;;16.94;78.81;99348.48;105904;1257;74072;-22
2023/09/15 08:05:08;;;;;;;1.10;0.90;;;;;;;16.81;79.62;99349.64;105741;1251;61768;-22
2023/09/15 08:07:35;;;;;;;0.70;0.60;;;;;;;16.72;80.05;99350.06;105337;1260;61196;-22
2023/09/15 08:10:04;;;;;;;7.70;1.80;;;;;;;17.21;79.22;99353.29;105871;1251;75195;-22
2023/09/15 08:12:31;;;;;;;4.10;1.30;;;;;;;17.51;76.18;99350.84;105727;1251;74345;-22
2023/09/15 08:14:58;;;;;;;2.80;1.30;;;;;;;17.59;76.26;99353.71;105756;1251;72511;-22
2023/09/15 08:17:26;;;;;;;2.10;1.10;;;;;;;17.45;76.22;99349.91;105660;1251;61818;-22
2023/09/15 08:20:01;;;;;;;3.70;1.30;;;;;;;17.21;77.75;99354.31;105688;1253;62076;-22
2023/09/15 08:22:30;;;;;;;5.60;1.30;;;;;;;17.22;77.90;99354.44;105713;1254;75534;-22
2023/09/15 08:24:58;;;;;;;1.60;0.70;;;;;;;17.31;78.56;99356.13;105900;1253;76440;-22
2023/09/15 08:27:25;;;;;;;2.30;0.80;;;;;;;17.86;75.24;99352.60;105617;1251;72712;-22
2023/09/15 08:29:53;;;;;;;1.40;0.90;;;;;;;18.08;73.00;99350.34;105585;1254;61930;-22
2023/09/15 08:32:20;;;;;;;1.60;0.80;;;;;;;18.16;73.19;99347.05;105675;1257;61198;-22
2023/09/15 08:34:48;;;;;;;2.70;1.00;;;;;;;18.41;74.41;99346.70;105636;1257;75509;-22
2023/09/15 08:37:15;;;;;;;2.90;0.80;;;;;;;18.17;72.36;99345.42;105863;1256;76232;-22
2023/09/15 08:39:42;;;;;;;3.90;0.80;;;;;;;18.10;72.70;99347.60;105983;1251;74115;-22
2023/09/15 08:42:36;;;;;;;2.70;1.00;;;;;;;18.09;72.90;99349.16;105808;1251;62202;-22
2023/09/15 08:45:07;;;;;;;1.60;0.80;;;;;;;18.00;72.62;99351.98;105867;1257;61112;-22
2023/09/15 08:47:36;;;;;;;1.90;0.60;;;;;;;18.09;73.39;99354.07;105799;1251;75414;-22
2023/09/15 08:50:04;;;;;;;0.70;0.70;;;;;;;18.35;72.34;99356.00;105739;1251;76264;-22
2023/09/15 08:52:32;;;;;;;1.80;0.80;;;;;;;18.69;69.48;99358.80;105759;1259;72725;-22
2023/09/15 08:54:59;;;;;;;1.60;0.80;;;;;;;18.72;68.83;99360.73;105938;1251;61832;-22
2023/09/15 08:57:27;;;;;;;1.10;1.00;;;;;;;18.58;70.28;99359.33;105639;1256;62174;-23
2023/09/15 08:59:54;;;;;;;1.20;1.00;;;;;;;18.83;70.91;99359.02;105559;1251;75034;-22
2023/09/15 09:02:23;;;;;;;1.20;0.70;;;;;;;18.90;70.12;99360.88;105786;1257;75853;-22
2023/09/15 09:07:16;;;;;;;0.80;0.80;;;;;;;18.78;69.37;99360.98;102579;1292;600337;-21
2023/09/15 09:09:44;;;;;;;2.00;0.90;;;;;;;18.88;68.92;99357.23;104835;1267;62897;-22
2023/09/15 09:12:13;;;;;;;1.10;0.80;;;;;;;18.86;68.36;99354.68;104884;1272;62717;-21
2023/09/15 09:14:44;;;;;;;1.00;0.80;;;;;;;18.68;68.50;99355.96;104783;1267;74000;-23
2023/09/15 09:17:12;;;;;;;1.30;0.80;;;;;;;18.68;68.00;99359.23;104937;1266;76179;-21
2023/09/15 09:19:46;;;;;;;2.10;0.80;;;;;;;18.70;67.63;99359.42;105009;1261;3104486;-22
2023/09/15 09:22:17;;;;;;;2.00;0.90;;;;;;;18.95;66.46;99364.59;105270;1266;74300;-21
2023/09/15 09:24:55;;;;;;;1.30;0.70;;;;;;;18.71;65.55;99360.80;105297;1263;62775;-21
2023/09/15 09:27:34;;;;;;;1.10;0.60;;;;;;;18.76;65.21;99368.04;105542;1263;62835;-21
2023/09/15 09:30:03;;;;;;;0.80;0.50;;;;;;;19.06;64.97;99367.05;105143;1266;75181;-21
2023/09/15 09:32:31;;;;;;;1.30;0.70;;;;;;;18.98;63.83;99367.55;105321;1263;77206;-22
2023/09/15 09:34:59;;;;;;;0.60;0.60;;;;;;;19.00;62.06;99369.79;105312;1258;74507;-22
2023/09/15 09:37:27;;;;;;;0.40;0.40;;;;;;;18.96;62.79;99375.36;105563;1263;61142;-22
2023/09/15 09:39:55;;;;;;;0.30;0.30;;;;;;;18.89;61.83;99376.70;105561;1262;61774;-22
2023/09/15 09:42:28;;;;;;;0.40;0.30;;;;;;;18.96;60.56;99373.41;105315;1258;75761;-22
2023/09/15 09:44:56;;;;;;;0.40;0.40;;;;;;;18.92;59.96;99375.27;105473;1257;73169;-22
2023/09/15 09:47:25;;;;;;;1.00;0.30;;;;;;;18.78;61.55;99372.80;105429;1260;75524;-22
2023/09/15 09:49:53;;;;;;;1.30;0.40;;;;;;;18.62;61.92;99379.13;105452;1257;61061;-22
2023/09/15 09:52:21;;;;;;;0.40;0.40;;;;;;;18.56;62.54;99378.84;105260;1261;61071;-22
2023/09/15 09:54:50;;;;;;;1.90;0.60;;;;;;;18.63;62.98;99379.20;105204;1264;73061;-22
2023/09/15 09:57:19;;;;;;;1.20;0.70;;;;;;;18.51;62.54;99382.03;105435;1257;75517;-22
2023/09/15 09:59:48;;;;;;;1.80;1.10;;;;;;;18.53;62.83;99386.20;105129;1262;71488;-23
2023/09/15 10:02:16;;;;;;;0.80;0.70;;;;;;;18.41;63.71;99381.75;105171;1263;61882;-22
2023/09/15 10:04:45;;;;;;;10.60;0.90;;;;;;;18.32;64.21;99388.30;105267;1264;62842;-23
2023/09/15 10:07:13;;;;;;;1.50;0.50;;;;;;;18.38;64.10;99383.44;105353;1258;75733;-22
2023/09/15 10:09:41;;;;;;;1.10;0.60;;;;;;;18.41;62.89;99382.22;105370;1263;75293;-22
2023/09/15 10:12:10;;;;;;;0.60;0.50;;;;;;;18.51;64.04;99380.33;105527;1258;72727;-23
2023/09/15 10:14:38;;;;;;;1.70;0.60;;;;;;;18.63;63.40;99389.90;105281;1266;61230;-22
2023/09/15 10:17:07;;;;;;;0.50;0.50;;;;;;;18.66;63.39;99391.88;105326;1264;61955;-22
2023/09/15 10:19:34;;;;;;;1.60;0.60;;;;;;;18.58;62.96;99395.35;105221;1266;74586;-23
2023/09/15 10:22:04;;;;;;;1.40;0.50;;;;;;;18.58;63.31;99395.85;105420;1260;76238;-23
2023/09/15 10:24:32;;;;;;;0.50;0.50;;;;;;;18.71;63.49;99399.52;105501;1259;73057;-24
2023/09/15 10:34:40;;;;;;;0.70;0.70;;;;;;;18.52;64.93;99402.33;102586;1292;600284;-22
2023/09/15 10:37:09;;;;;;;0.70;0.50;;;;;;;18.52;64.87;99403.40;104829;1268;61186;-24
2023/09/15 10:47:16;;;;;;;1.80;0.50;;;;;;;18.43;64.96;99405.05;102639;1291;600112;-21
2023/09/15 10:49:52;;;;;;;0.60;0.60;;;;;;;18.50;65.52;99409.73;104827;1273;61216;-22
2023/09/15 10:52:33;;;;;;;0.50;0.50;;;;;;;18.49;64.98;99407.75;104785;1264;61066;-21
2023/09/15 10:55:01;;;;;;;1.10;0.50;;;;;;;18.40;65.49;99404.33;104664;1274;74006;-23
2023/09/15 10:57:35;;;;;;;0.60;0.50;;;;;;;18.37;65.83;99404.78;104830;1273;73484;-22
2023/09/15 11:00:08;;;;;;;3.10;0.50;;;;;;;18.37;65.75;99409.37;102526;1263;3183647;-23
2023/09/15 11:02:36;;;;;;;0.80;0.60;;;;;;;18.45;65.79;99413.25;104820;1270;62534;-22
2023/09/15 11:12:42;;;;;;;1.80;1.50;;;;;;;18.34;66.70;99417.41;102726;1289;600161;-22
2023/09/15 11:15:10;;;;;;;1.70;0.60;;;;;;;18.10;67.02;99424.87;104955;1266;61065;-22
2023/09/15 11:17:38;;;;;;;1.40;1.00;;;;;;;18.02;67.21;99425.73;104827;1271;62639;-23
2023/09/15 11:20:07;;;;;;;1.60;0.70;;;;;;;17.94;67.39;99423.16;104764;1270;75298;-22
2023/09/15 11:22:39;;;;;;;1.20;0.70;;;;;;;17.88;68.27;99424.08;104845;1264;77119;-22
2023/09/15 11:25:10;;;;;;;0.50;0.40;;;;;;;17.90;68.51;99430.71;104474;1267;3100321;-24
2023/09/15 11:27:48;;;;;;;0.90;0.60;;;;;;;18.45;67.27;99427.12;105182;1264;72519;-23
2023/09/15 11:38:03;;;;;;;1.90;1.50;;;;;;;18.42;67.26;99433.25;102701;1294;600182;-23
2023/09/15 11:40:32;;;;;;;0.90;0.80;;;;;;;18.30;68.32;99437.23;104855;1272;61839;-21
2023/09/15 11:43:00;;;;;;;1.10;0.70;;;;;;;18.28;69.00;99444.77;104812;1275;61148;-23
2023/09/15 11:45:28;;;;;;;2.10;0.90;;;;;;;18.07;69.80;99447.89;104806;1267;72167;-23
2023/09/15 11:47:59;;;;;;;0.70;0.70;;;;;;;17.82;71.08;99451.70;104925;1273;74282;-23
2023/09/15 11:50:28;;;;;;;1.80;1.10;;;;;;;17.68;71.07;99455.16;102901;1267;3135184;-24
2023/09/15 11:52:56;;;;;;;1.60;1.10;;;;;;;17.52;71.28;99460.42;105721;1254;61282;-22
2023/09/15 11:55:25;;;;;;;2.50;0.90;;;;;;;17.43;72.13;99462.10;105854;1257;62899;-21
2023/09/15 11:57:53;;;;;;;3.40;1.10;;;;;;;17.85;70.89;99463.17;105663;1260;75039;-21
2023/09/15 12:00:23;;;;;;;1.30;0.90;;;;;;;18.08;69.42;99461.46;105671;1258;77060;-21
2023/09/15 12:02:52;;;;;;;4.20;1.50;;;;;;;18.00;69.12;99465.16;105709;1257;72685;-21